sensor_id;sensor_type;location;lat;lon;timestamp;P1;durP1;ratioP1;P2;durP2;ratioP2
5742;SDS011;2896;53.500;10.020;2022-08-19T00:01:15;13.00;;;8.97;;
5742;SDS011;2896;53.500;10.020;2022-08-19T00:03:42;10.43;;;9.43;;
5742;SDS011;2896;53.500;10.020;2022-08-19T00:06:08;15.33;;;10.30;;
5742;SDS011;2896;53.500;10.020;2022-08-19T00:08:35;12.57;;;10.60;;
5742;SDS011;2896;53.500;10.020;2022-08-19T00:11:02;10.53;;;9.43;;
5742;SDS011;2896;53.500;10.020;2022-08-19T00:13:30;12.87;;;8.73;;
5742;SDS011;2896;53.500;10.020;2022-08-19T00:15:57;17.60;;;10.30;;
5742;SDS011;2896;53.500;10.020;2022-08-19T00:18:25;14.43;;;11.30;;
5742;SDS011;2896;53.500;10.020;2022-08-19T00:20:52;15.90;;;10.77;;
5742;SDS011;2896;53.500;10.020;2022-08-19T00:23:19;17.23;;;10.53;;
5742;SDS011;2896;53.500;10.020;2022-08-19T00:25:45;12.83;;;10.33;;
5742;SDS011;2896;53.500;10.020;2022-08-19T00:28:12;15.50;;;12.27;;
5742;SDS011;2896;53.500;10.020;2022-08-19T00:30:40;17.57;;;11.37;;
5742;SDS011;2896;53.500;10.020;2022-08-19T00:33:07;13.23;;;10.80;;
5742;SDS011;2896;53.500;10.020;2022-08-19T00:35:34;14.70;;;11.67;;
5742;SDS011;2896;53.500;10.020;2022-08-19T00:38:00;14.63;;;12.10;;
5742;SDS011;2896;53.500;10.020;2022-08-19T00:40:27;13.67;;;12.30;;
5742;SDS011;2896;53.500;10.020;2022-08-19T00:42:55;15.20;;;13.60;;
5742;SDS011;2896;53.500;10.020;2022-08-19T00:45:23;13.03;;;11.40;;
5742;SDS011;2896;53.500;10.020;2022-08-19T00:47:53;22.97;;;15.80;;
5742;SDS011;2896;53.500;10.020;2022-08-19T00:50:20;22.27;;;17.73;;
5742;SDS011;2896;53.500;10.020;2022-08-19T00:52:48;23.83;;;17.97;;
5742;SDS011;2896;53.500;10.020;2022-08-19T00:55:18;38.83;;;21.40;;
5742;SDS011;2896;53.500;10.020;2022-08-19T00:57:47;31.13;;;21.00;;
5742;SDS011;2896;53.500;10.020;2022-08-19T01:00:18;29.70;;;19.47;;
5742;SDS011;2896;53.500;10.020;2022-08-19T01:02:45;28.07;;;20.23;;
5742;SDS011;2896;53.500;10.020;2022-08-19T01:05:14;26.47;;;20.07;;
5742;SDS011;2896;53.500;10.020;2022-08-19T01:07:43;25.17;;;19.50;;
5742;SDS011;2896;53.500;10.020;2022-08-19T01:10:11;24.87;;;19.20;;
5742;SDS011;2896;53.500;10.020;2022-08-19T01:12:40;33.77;;;20.40;;
5742;SDS011;2896;53.500;10.020;2022-08-19T01:15:08;27.47;;;19.80;;
5742;SDS011;2896;53.500;10.020;2022-08-19T01:17:38;36.33;;;25.30;;
5742;SDS011;2896;53.500;10.020;2022-08-19T01:20:06;34.37;;;23.47;;
5742;SDS011;2896;53.500;10.020;2022-08-19T01:22:38;40.93;;;24.53;;
5742;SDS011;2896;53.500;10.020;2022-08-19T01:25:10;38.53;;;25.20;;
5742;SDS011;2896;53.500;10.020;2022-08-19T01:27:38;43.23;;;26.37;;
5742;SDS011;2896;53.500;10.020;2022-08-19T01:30:08;49.07;;;28.73;;
5742;SDS011;2896;53.500;10.020;2022-08-19T01:32:36;37.30;;;25.07;;
5742;SDS011;2896;53.500;10.020;2022-08-19T01:35:03;43.87;;;27.00;;
5742;SDS011;2896;53.500;10.020;2022-08-19T01:37:42;34.27;;;24.57;;
5742;SDS011;2896;53.500;10.020;2022-08-19T01:40:13;45.83;;;26.77;;
5742;SDS011;2896;53.500;10.020;2022-08-19T01:42:40;38.33;;;24.33;;
5742;SDS011;2896;53.500;10.020;2022-08-19T01:45:07;55.83;;;30.13;;
5742;SDS011;2896;53.500;10.020;2022-08-19T01:47:34;45.03;;;29.90;;
5742;SDS011;2896;53.500;10.020;2022-08-19T01:50:02;46.00;;;27.90;;
5742;SDS011;2896;53.500;10.020;2022-08-19T01:52:29;42.57;;;25.50;;
5742;SDS011;2896;53.500;10.020;2022-08-19T01:54:58;42.97;;;29.50;;
5742;SDS011;2896;53.500;10.020;2022-08-19T01:57:24;39.73;;;27.70;;
5742;SDS011;2896;53.500;10.020;2022-08-19T01:59:51;55.80;;;28.00;;
5742;SDS011;2896;53.500;10.020;2022-08-19T02:02:18;42.50;;;26.00;;
5742;SDS011;2896;53.500;10.020;2022-08-19T02:04:45;35.13;;;25.40;;
5742;SDS011;2896;53.500;10.020;2022-08-19T02:07:12;30.13;;;22.87;;
5742;SDS011;2896;53.500;10.020;2022-08-19T02:09:39;24.20;;;16.57;;
5742;SDS011;2896;53.500;10.020;2022-08-19T02:12:07;22.80;;;13.57;;
5742;SDS011;2896;53.500;10.020;2022-08-19T02:14:34;28.33;;;14.00;;
5742;SDS011;2896;53.500;10.020;2022-08-19T02:17:01;14.37;;;12.83;;
5742;SDS011;2896;53.500;10.020;2022-08-19T02:19:28;22.57;;;14.40;;
5742;SDS011;2896;53.500;10.020;2022-08-19T02:21:57;26.20;;;17.03;;
5742;SDS011;2896;53.500;10.020;2022-08-19T02:24:24;30.90;;;17.63;;
5742;SDS011;2896;53.500;10.020;2022-08-19T02:26:51;45.30;;;26.90;;
5742;SDS011;2896;53.500;10.020;2022-08-19T02:29:19;41.83;;;25.63;;
5742;SDS011;2896;53.500;10.020;2022-08-19T02:31:46;29.40;;;21.53;;
5742;SDS011;2896;53.500;10.020;2022-08-19T02:34:13;30.20;;;19.30;;
5742;SDS011;2896;53.500;10.020;2022-08-19T02:36:39;19.23;;;14.60;;
5742;SDS011;2896;53.500;10.020;2022-08-19T02:39:06;27.23;;;15.57;;
5742;SDS011;2896;53.500;10.020;2022-08-19T02:41:32;18.73;;;13.10;;
5742;SDS011;2896;53.500;10.020;2022-08-19T02:44:01;30.90;;;18.70;;
5742;SDS011;2896;53.500;10.020;2022-08-19T02:46:30;28.90;;;16.87;;
5742;SDS011;2896;53.500;10.020;2022-08-19T02:49:00;32.57;;;17.43;;
5742;SDS011;2896;53.500;10.020;2022-08-19T02:51:31;36.17;;;22.33;;
5742;SDS011;2896;53.500;10.020;2022-08-19T02:53:58;44.20;;;26.23;;
5742;SDS011;2896;53.500;10.020;2022-08-19T02:56:26;43.90;;;25.90;;
5742;SDS011;2896;53.500;10.020;2022-08-19T02:58:53;46.90;;;26.60;;
5742;SDS011;2896;53.500;10.020;2022-08-19T03:01:21;45.77;;;25.03;;
5742;SDS011;2896;53.500;10.020;2022-08-19T03:03:50;53.20;;;27.57;;
5742;SDS011;2896;53.500;10.020;2022-08-19T03:06:17;44.70;;;25.13;;
5742;SDS011;2896;53.500;10.020;2022-08-19T03:08:44;50.67;;;27.60;;
5742;SDS011;2896;53.500;10.020;2022-08-19T03:11:13;51.00;;;27.93;;
5742;SDS011;2896;53.500;10.020;2022-08-19T03:13:40;47.13;;;28.07;;
5742;SDS011;2896;53.500;10.020;2022-08-19T03:16:08;55.77;;;28.90;;
5742;SDS011;2896;53.500;10.020;2022-08-19T03:18:35;56.43;;;30.53;;
5742;SDS011;2896;53.500;10.020;2022-08-19T03:21:03;60.67;;;31.07;;
5742;SDS011;2896;53.500;10.020;2022-08-19T03:23:30;55.47;;;29.37;;
5742;SDS011;2896;53.500;10.020;2022-08-19T03:25:57;62.50;;;31.17;;
5742;SDS011;2896;53.500;10.020;2022-08-19T03:28:24;58.43;;;30.40;;
5742;SDS011;2896;53.500;10.020;2022-08-19T03:30:57;60.20;;;32.10;;
5742;SDS011;2896;53.500;10.020;2022-08-19T03:33:25;60.03;;;31.07;;
5742;SDS011;2896;53.500;10.020;2022-08-19T03:35:59;62.47;;;33.90;;
5742;SDS011;2896;53.500;10.020;2022-08-19T03:38:33;81.37;;;36.70;;
5742;SDS011;2896;53.500;10.020;2022-08-19T03:41:04;92.03;;;38.10;;
5742;SDS011;2896;53.500;10.020;2022-08-19T03:43:33;78.57;;;36.67;;
5742;SDS011;2896;53.500;10.020;2022-08-19T03:46:02;74.00;;;37.60;;
5742;SDS011;2896;53.500;10.020;2022-08-19T03:48:30;80.03;;;37.03;;
5742;SDS011;2896;53.500;10.020;2022-08-19T03:50:58;64.30;;;34.83;;
5742;SDS011;2896;53.500;10.020;2022-08-19T03:53:26;58.73;;;31.63;;
5742;SDS011;2896;53.500;10.020;2022-08-19T03:55:53;51.63;;;30.43;;
5742;SDS011;2896;53.500;10.020;2022-08-19T03:58:21;64.77;;;34.43;;
5742;SDS011;2896;53.500;10.020;2022-08-19T04:00:49;57.27;;;33.27;;
5742;SDS011;2896;53.500;10.020;2022-08-19T04:03:16;54.23;;;28.30;;
5742;SDS011;2896;53.500;10.020;2022-08-19T04:05:44;58.03;;;32.50;;
5742;SDS011;2896;53.500;10.020;2022-08-19T04:08:12;54.17;;;30.13;;
5742;SDS011;2896;53.500;10.020;2022-08-19T04:10:45;53.13;;;27.67;;
5742;SDS011;2896;53.500;10.020;2022-08-19T04:13:12;47.30;;;27.67;;
5742;SDS011;2896;53.500;10.020;2022-08-19T04:15:40;51.07;;;29.03;;
5742;SDS011;2896;53.500;10.020;2022-08-19T04:18:07;55.47;;;31.00;;
5742;SDS011;2896;53.500;10.020;2022-08-19T04:20:38;60.00;;;32.63;;
5742;SDS011;2896;53.500;10.020;2022-08-19T04:23:09;75.20;;;35.70;;
5742;SDS011;2896;53.500;10.020;2022-08-19T04:25:37;45.27;;;26.73;;
5742;SDS011;2896;53.500;10.020;2022-08-19T04:28:07;61.03;;;27.60;;
5742;SDS011;2896;53.500;10.020;2022-08-19T04:30:38;52.17;;;26.40;;
5742;SDS011;2896;53.500;10.020;2022-08-19T04:33:07;44.90;;;26.20;;
5742;SDS011;2896;53.500;10.020;2022-08-19T04:35:36;31.67;;;20.43;;
5742;SDS011;2896;53.500;10.020;2022-08-19T04:38:04;40.70;;;22.03;;
5742;SDS011;2896;53.500;10.020;2022-08-19T04:40:31;39.87;;;24.20;;
5742;SDS011;2896;53.500;10.020;2022-08-19T04:43:16;41.17;;;22.10;;
5742;SDS011;2896;53.500;10.020;2022-08-19T04:45:43;44.40;;;21.90;;
5742;SDS011;2896;53.500;10.020;2022-08-19T04:48:10;35.00;;;20.50;;
5742;SDS011;2896;53.500;10.020;2022-08-19T04:50:39;45.57;;;26.33;;
5742;SDS011;2896;53.500;10.020;2022-08-19T04:53:07;38.20;;;26.17;;
5742;SDS011;2896;53.500;10.020;2022-08-19T04:55:33;51.13;;;28.97;;
5742;SDS011;2896;53.500;10.020;2022-08-19T04:58:01;64.30;;;31.83;;
5742;SDS011;2896;53.500;10.020;2022-08-19T05:00:29;44.67;;;31.60;;
5742;SDS011;2896;53.500;10.020;2022-08-19T05:02:56;49.70;;;29.90;;
5742;SDS011;2896;53.500;10.020;2022-08-19T05:05:22;53.87;;;31.20;;
5742;SDS011;2896;53.500;10.020;2022-08-19T05:07:49;48.07;;;30.47;;
5742;SDS011;2896;53.500;10.020;2022-08-19T05:10:16;56.30;;;31.43;;
5742;SDS011;2896;53.500;10.020;2022-08-19T05:12:43;48.87;;;29.40;;
5742;SDS011;2896;53.500;10.020;2022-08-19T05:15:10;41.50;;;27.03;;
5742;SDS011;2896;53.500;10.020;2022-08-19T05:17:38;59.60;;;32.23;;
5742;SDS011;2896;53.500;10.020;2022-08-19T05:20:27;59.13;;;33.00;;
5742;SDS011;2896;53.500;10.020;2022-08-19T05:23:11;58.30;;;31.20;;
5742;SDS011;2896;53.500;10.020;2022-08-19T05:25:42;60.80;;;32.67;;
5742;SDS011;2896;53.500;10.020;2022-08-19T05:28:09;58.40;;;31.57;;
5742;SDS011;2896;53.500;10.020;2022-08-19T05:30:36;46.80;;;31.87;;
5742;SDS011;2896;53.500;10.020;2022-08-19T05:33:04;56.50;;;31.00;;
5742;SDS011;2896;53.500;10.020;2022-08-19T05:35:31;41.77;;;25.17;;
5742;SDS011;2896;53.500;10.020;2022-08-19T05:37:57;62.57;;;33.77;;
5742;SDS011;2896;53.500;10.020;2022-08-19T05:40:24;70.67;;;35.03;;
5742;SDS011;2896;53.500;10.020;2022-08-19T05:42:51;47.83;;;28.60;;
5742;SDS011;2896;53.500;10.020;2022-08-19T05:45:18;53.10;;;29.40;;
5742;SDS011;2896;53.500;10.020;2022-08-19T05:47:45;49.60;;;30.30;;
5742;SDS011;2896;53.500;10.020;2022-08-19T05:50:13;64.97;;;33.70;;
5742;SDS011;2896;53.500;10.020;2022-08-19T05:52:40;51.10;;;27.73;;
5742;SDS011;2896;53.500;10.020;2022-08-19T05:55:06;51.07;;;30.17;;
5742;SDS011;2896;53.500;10.020;2022-08-19T05:57:33;45.57;;;31.00;;
5742;SDS011;2896;53.500;10.020;2022-08-19T06:00:00;51.60;;;29.10;;
5742;SDS011;2896;53.500;10.020;2022-08-19T06:02:28;47.13;;;27.17;;
5742;SDS011;2896;53.500;10.020;2022-08-19T06:04:55;48.43;;;29.20;;
5742;SDS011;2896;53.500;10.020;2022-08-19T06:07:23;45.70;;;25.70;;
5742;SDS011;2896;53.500;10.020;2022-08-19T06:09:50;35.13;;;23.47;;
5742;SDS011;2896;53.500;10.020;2022-08-19T06:12:17;40.13;;;25.40;;
5742;SDS011;2896;53.500;10.020;2022-08-19T06:14:43;49.60;;;27.90;;
5742;SDS011;2896;53.500;10.020;2022-08-19T06:17:10;61.83;;;29.97;;
5742;SDS011;2896;53.500;10.020;2022-08-19T06:19:37;39.93;;;24.83;;
5742;SDS011;2896;53.500;10.020;2022-08-19T06:22:05;46.73;;;26.80;;
5742;SDS011;2896;53.500;10.020;2022-08-19T06:24:34;51.47;;;28.07;;
5742;SDS011;2896;53.500;10.020;2022-08-19T06:27:01;53.70;;;28.50;;
5742;SDS011;2896;53.500;10.020;2022-08-19T06:29:30;50.93;;;27.13;;
5742;SDS011;2896;53.500;10.020;2022-08-19T06:31:59;31.33;;;21.63;;
5742;SDS011;2896;53.500;10.020;2022-08-19T06:34:28;52.10;;;28.87;;
5742;SDS011;2896;53.500;10.020;2022-08-19T06:36:58;55.60;;;28.00;;
5742;SDS011;2896;53.500;10.020;2022-08-19T06:39:27;55.13;;;28.43;;
5742;SDS011;2896;53.500;10.020;2022-08-19T06:41:57;54.87;;;28.23;;
5742;SDS011;2896;53.500;10.020;2022-08-19T06:44:28;47.10;;;25.87;;
5742;SDS011;2896;53.500;10.020;2022-08-19T06:47:00;65.53;;;31.30;;
5742;SDS011;2896;53.500;10.020;2022-08-19T06:49:28;57.90;;;29.63;;
5742;SDS011;2896;53.500;10.020;2022-08-19T06:51:55;44.70;;;25.30;;
5742;SDS011;2896;53.500;10.020;2022-08-19T06:54:23;50.67;;;25.47;;
5742;SDS011;2896;53.500;10.020;2022-08-19T06:56:51;57.83;;;25.43;;
5742;SDS011;2896;53.500;10.020;2022-08-19T06:59:20;39.07;;;23.40;;
5742;SDS011;2896;53.500;10.020;2022-08-19T07:01:52;42.37;;;24.53;;
5742;SDS011;2896;53.500;10.020;2022-08-19T07:04:21;42.03;;;25.33;;
5742;SDS011;2896;53.500;10.020;2022-08-19T07:06:50;54.20;;;25.50;;
5742;SDS011;2896;53.500;10.020;2022-08-19T07:09:23;50.83;;;24.90;;
5742;SDS011;2896;53.500;10.020;2022-08-19T07:11:50;58.13;;;24.77;;
5742;SDS011;2896;53.500;10.020;2022-08-19T07:14:20;51.07;;;27.13;;
5742;SDS011;2896;53.500;10.020;2022-08-19T07:16:50;43.37;;;23.60;;
5742;SDS011;2896;53.500;10.020;2022-08-19T07:19:19;48.40;;;24.57;;
5742;SDS011;2896;53.500;10.020;2022-08-19T07:21:48;48.47;;;22.97;;
5742;SDS011;2896;53.500;10.020;2022-08-19T07:24:17;36.77;;;22.70;;
5742;SDS011;2896;53.500;10.020;2022-08-19T07:26:45;38.70;;;22.87;;
5742;SDS011;2896;53.500;10.020;2022-08-19T07:29:12;49.97;;;23.67;;
5742;SDS011;2896;53.500;10.020;2022-08-19T07:31:41;39.23;;;20.30;;
5742;SDS011;2896;53.500;10.020;2022-08-19T07:34:10;41.57;;;20.60;;
5742;SDS011;2896;53.500;10.020;2022-08-19T07:36:39;32.37;;;19.37;;
5742;SDS011;2896;53.500;10.020;2022-08-19T07:39:08;38.00;;;17.17;;
5742;SDS011;2896;53.500;10.020;2022-08-19T07:41:37;23.63;;;16.80;;
5742;SDS011;2896;53.500;10.020;2022-08-19T07:44:04;32.70;;;19.10;;
5742;SDS011;2896;53.500;10.020;2022-08-19T07:46:32;38.00;;;19.13;;
5742;SDS011;2896;53.500;10.020;2022-08-19T07:49:01;27.13;;;17.40;;
5742;SDS011;2896;53.500;10.020;2022-08-19T07:51:29;25.07;;;16.07;;
5742;SDS011;2896;53.500;10.020;2022-08-19T07:53:56;29.03;;;17.03;;
5742;SDS011;2896;53.500;10.020;2022-08-19T07:56:23;33.40;;;16.70;;
5742;SDS011;2896;53.500;10.020;2022-08-19T07:58:50;22.27;;;15.20;;
5742;SDS011;2896;53.500;10.020;2022-08-19T08:01:19;28.60;;;16.97;;
5742;SDS011;2896;53.500;10.020;2022-08-19T08:03:47;24.93;;;15.53;;
5742;SDS011;2896;53.500;10.020;2022-08-19T08:06:33;33.30;;;16.10;;
5742;SDS011;2896;53.500;10.020;2022-08-19T08:09:18;33.57;;;14.03;;
5742;SDS011;2896;53.500;10.020;2022-08-19T08:11:48;23.80;;;15.40;;
5742;SDS011;2896;53.500;10.020;2022-08-19T08:14:17;34.60;;;16.80;;
5742;SDS011;2896;53.500;10.020;2022-08-19T08:16:47;31.57;;;16.80;;
5742;SDS011;2896;53.500;10.020;2022-08-19T08:19:16;20.10;;;13.57;;
5742;SDS011;2896;53.500;10.020;2022-08-19T08:21:45;22.30;;;12.97;;
5742;SDS011;2896;53.500;10.020;2022-08-19T08:24:12;30.40;;;12.37;;
5742;SDS011;2896;53.500;10.020;2022-08-19T08:26:39;16.10;;;11.50;;
5742;SDS011;2896;53.500;10.020;2022-08-19T08:29:06;18.80;;;10.87;;
5742;SDS011;2896;53.500;10.020;2022-08-19T08:31:36;15.77;;;11.37;;
5742;SDS011;2896;53.500;10.020;2022-08-19T08:34:03;17.10;;;11.63;;
5742;SDS011;2896;53.500;10.020;2022-08-19T08:36:30;21.83;;;14.70;;
5742;SDS011;2896;53.500;10.020;2022-08-19T08:38:59;26.83;;;16.73;;
5742;SDS011;2896;53.500;10.020;2022-08-19T08:41:28;37.40;;;15.90;;
5742;SDS011;2896;53.500;10.020;2022-08-19T08:44:00;35.03;;;16.90;;
5742;SDS011;2896;53.500;10.020;2022-08-19T08:46:30;28.77;;;19.17;;
5742;SDS011;2896;53.500;10.020;2022-08-19T08:49:05;37.00;;;19.17;;
5742;SDS011;2896;53.500;10.020;2022-08-19T08:51:44;39.83;;;19.13;;
5742;SDS011;2896;53.500;10.020;2022-08-19T08:54:17;19.80;;;14.80;;
5742;SDS011;2896;53.500;10.020;2022-08-19T08:56:47;23.90;;;14.10;;
5742;SDS011;2896;53.500;10.020;2022-08-19T08:59:19;24.77;;;14.37;;
5742;SDS011;2896;53.500;10.020;2022-08-19T09:01:49;19.40;;;12.90;;
5742;SDS011;2896;53.500;10.020;2022-08-19T09:04:16;31.30;;;15.73;;
5742;SDS011;2896;53.500;10.020;2022-08-19T09:06:44;43.30;;;19.20;;
5742;SDS011;2896;53.500;10.020;2022-08-19T09:09:23;38.10;;;22.17;;
5742;SDS011;2896;53.500;10.020;2022-08-19T09:12:00;31.77;;;21.07;;
5742;SDS011;2896;53.500;10.020;2022-08-19T09:14:34;35.83;;;20.63;;
5742;SDS011;2896;53.500;10.020;2022-08-19T09:17:06;33.60;;;17.63;;
5742;SDS011;2896;53.500;10.020;2022-08-19T09:19:34;35.20;;;18.33;;
5742;SDS011;2896;53.500;10.020;2022-08-19T09:22:01;40.50;;;20.20;;
5742;SDS011;2896;53.500;10.020;2022-08-19T09:24:29;48.23;;;21.73;;
5742;SDS011;2896;53.500;10.020;2022-08-19T09:26:56;35.13;;;20.20;;
5742;SDS011;2896;53.500;10.020;2022-08-19T09:29:22;40.53;;;21.77;;
5742;SDS011;2896;53.500;10.020;2022-08-19T09:31:49;43.20;;;21.43;;
5742;SDS011;2896;53.500;10.020;2022-08-19T09:34:16;40.63;;;21.47;;
5742;SDS011;2896;53.500;10.020;2022-08-19T09:36:44;40.83;;;22.60;;
5742;SDS011;2896;53.500;10.020;2022-08-19T09:39:11;39.23;;;21.03;;
5742;SDS011;2896;53.500;10.020;2022-08-19T09:41:39;51.80;;;21.63;;
5742;SDS011;2896;53.500;10.020;2022-08-19T09:44:06;40.30;;;22.53;;
5742;SDS011;2896;53.500;10.020;2022-08-19T09:46:32;45.40;;;22.53;;
5742;SDS011;2896;53.500;10.020;2022-08-19T09:49:00;27.67;;;19.70;;
5742;SDS011;2896;53.500;10.020;2022-08-19T09:51:29;28.60;;;19.10;;
5742;SDS011;2896;53.500;10.020;2022-08-19T09:53:58;37.60;;;21.77;;
5742;SDS011;2896;53.500;10.020;2022-08-19T09:56:26;29.63;;;19.57;;
5742;SDS011;2896;53.500;10.020;2022-08-19T09:58:57;36.20;;;21.20;;
5742;SDS011;2896;53.500;10.020;2022-08-19T10:01:24;31.93;;;19.63;;
5742;SDS011;2896;53.500;10.020;2022-08-19T10:03:53;38.10;;;20.20;;
5742;SDS011;2896;53.500;10.020;2022-08-19T10:06:22;31.40;;;18.93;;
5742;SDS011;2896;53.500;10.020;2022-08-19T10:08:50;30.70;;;17.80;;
5742;SDS011;2896;53.500;10.020;2022-08-19T10:11:18;37.90;;;18.37;;
5742;SDS011;2896;53.500;10.020;2022-08-19T10:13:46;32.17;;;18.27;;
5742;SDS011;2896;53.500;10.020;2022-08-19T10:16:15;40.93;;;17.60;;
5742;SDS011;2896;53.500;10.020;2022-08-19T10:18:46;28.57;;;16.60;;
5742;SDS011;2896;53.500;10.020;2022-08-19T10:21:14;28.77;;;16.80;;
5742;SDS011;2896;53.500;10.020;2022-08-19T10:23:43;24.73;;;16.60;;
5742;SDS011;2896;53.500;10.020;2022-08-19T10:26:13;28.93;;;16.37;;
5742;SDS011;2896;53.500;10.020;2022-08-19T10:28:41;31.37;;;16.73;;
5742;SDS011;2896;53.500;10.020;2022-08-19T10:31:09;21.57;;;14.07;;
5742;SDS011;2896;53.500;10.020;2022-08-19T10:33:39;37.53;;;16.30;;
5742;SDS011;2896;53.500;10.020;2022-08-19T10:36:07;27.93;;;14.50;;
5742;SDS011;2896;53.500;10.020;2022-08-19T10:38:37;30.80;;;17.93;;
5742;SDS011;2896;53.500;10.020;2022-08-19T10:41:07;30.70;;;18.60;;
5742;SDS011;2896;53.500;10.020;2022-08-19T10:43:36;37.23;;;18.70;;
5742;SDS011;2896;53.500;10.020;2022-08-19T10:46:05;23.00;;;17.37;;
5742;SDS011;2896;53.500;10.020;2022-08-19T10:48:32;30.00;;;18.60;;
5742;SDS011;2896;53.500;10.020;2022-08-19T10:51:01;33.70;;;20.30;;
5742;SDS011;2896;53.500;10.020;2022-08-19T10:53:46;31.83;;;19.50;;
5742;SDS011;2896;53.500;10.020;2022-08-19T10:56:13;28.03;;;20.10;;
5742;SDS011;2896;53.500;10.020;2022-08-19T10:58:57;23.47;;;17.13;;
5742;SDS011;2896;53.500;10.020;2022-08-19T11:01:24;25.83;;;17.23;;
5742;SDS011;2896;53.500;10.020;2022-08-19T11:03:51;25.70;;;17.77;;
5742;SDS011;2896;53.500;10.020;2022-08-19T11:06:19;32.10;;;16.83;;
5742;SDS011;2896;53.500;10.020;2022-08-19T11:08:46;25.00;;;17.30;;
5742;SDS011;2896;53.500;10.020;2022-08-19T11:11:12;33.10;;;19.53;;
5742;SDS011;2896;53.500;10.020;2022-08-19T11:13:40;25.27;;;16.23;;
5742;SDS011;2896;53.500;10.020;2022-08-19T11:16:08;35.53;;;17.70;;
5742;SDS011;2896;53.500;10.020;2022-08-19T11:18:39;26.60;;;17.90;;
5742;SDS011;2896;53.500;10.020;2022-08-19T11:21:09;30.40;;;20.43;;
5742;SDS011;2896;53.500;10.020;2022-08-19T11:23:40;28.87;;;19.00;;
5742;SDS011;2896;53.500;10.020;2022-08-19T11:26:08;23.17;;;17.73;;
5742;SDS011;2896;53.500;10.020;2022-08-19T11:28:35;30.73;;;19.20;;
5742;SDS011;2896;53.500;10.020;2022-08-19T11:31:03;29.00;;;17.77;;
5742;SDS011;2896;53.500;10.020;2022-08-19T11:33:30;29.03;;;19.03;;
5742;SDS011;2896;53.500;10.020;2022-08-19T11:35:57;36.10;;;18.70;;
5742;SDS011;2896;53.500;10.020;2022-08-19T11:38:26;28.80;;;18.57;;
5742;SDS011;2896;53.500;10.020;2022-08-19T11:40:58;27.70;;;17.73;;
5742;SDS011;2896;53.500;10.020;2022-08-19T11:43:27;29.13;;;18.80;;
5742;SDS011;2896;53.500;10.020;2022-08-19T11:45:54;23.67;;;17.20;;
5742;SDS011;2896;53.500;10.020;2022-08-19T11:48:21;33.70;;;16.40;;
5742;SDS011;2896;53.500;10.020;2022-08-19T11:50:48;19.70;;;15.43;;
5742;SDS011;2896;53.500;10.020;2022-08-19T11:53:15;21.63;;;16.13;;
5742;SDS011;2896;53.500;10.020;2022-08-19T11:55:43;25.60;;;16.87;;
5742;SDS011;2896;53.500;10.020;2022-08-19T11:58:11;24.53;;;16.33;;
5742;SDS011;2896;53.500;10.020;2022-08-19T12:00:38;24.27;;;17.10;;
5742;SDS011;2896;53.500;10.020;2022-08-19T12:03:06;21.80;;;16.00;;
5742;SDS011;2896;53.500;10.020;2022-08-19T12:05:33;23.50;;;16.27;;
5742;SDS011;2896;53.500;10.020;2022-08-19T12:08:02;22.67;;;16.67;;
5742;SDS011;2896;53.500;10.020;2022-08-19T12:10:29;19.43;;;15.40;;
5742;SDS011;2896;53.500;10.020;2022-08-19T12:12:55;25.10;;;16.13;;
5742;SDS011;2896;53.500;10.020;2022-08-19T12:15:23;23.10;;;14.50;;
5742;SDS011;2896;53.500;10.020;2022-08-19T12:17:52;25.33;;;16.07;;
5742;SDS011;2896;53.500;10.020;2022-08-19T12:20:21;24.13;;;17.60;;
5742;SDS011;2896;53.500;10.020;2022-08-19T12:22:49;18.63;;;14.37;;
5742;SDS011;2896;53.500;10.020;2022-08-19T12:25:16;25.83;;;16.07;;
5742;SDS011;2896;53.500;10.020;2022-08-19T12:27:43;20.63;;;13.53;;
5742;SDS011;2896;53.500;10.020;2022-08-19T12:30:12;20.83;;;14.33;;
5742;SDS011;2896;53.500;10.020;2022-08-19T12:32:40;17.50;;;13.23;;
5742;SDS011;2896;53.500;10.020;2022-08-19T12:35:07;21.53;;;14.40;;
5742;SDS011;2896;53.500;10.020;2022-08-19T12:37:36;18.90;;;14.77;;
5742;SDS011;2896;53.500;10.020;2022-08-19T12:40:03;21.37;;;16.00;;
5742;SDS011;2896;53.500;10.020;2022-08-19T12:42:31;20.37;;;15.47;;
5742;SDS011;2896;53.500;10.020;2022-08-19T12:44:57;18.83;;;15.80;;
5742;SDS011;2896;53.500;10.020;2022-08-19T12:47:24;19.67;;;15.47;;
5742;SDS011;2896;53.500;10.020;2022-08-19T12:49:52;18.27;;;14.30;;
5742;SDS011;2896;53.500;10.020;2022-08-19T12:52:19;21.90;;;16.20;;
5742;SDS011;2896;53.500;10.020;2022-08-19T12:54:46;17.73;;;14.30;;
5742;SDS011;2896;53.500;10.020;2022-08-19T12:57:13;17.50;;;14.27;;
5742;SDS011;2896;53.500;10.020;2022-08-19T12:59:40;17.93;;;14.47;;
5742;SDS011;2896;53.500;10.020;2022-08-19T13:02:07;16.27;;;12.77;;
5742;SDS011;2896;53.500;10.020;2022-08-19T13:04:34;13.97;;;12.50;;
5742;SDS011;2896;53.500;10.020;2022-08-19T13:07:06;18.63;;;14.20;;
5742;SDS011;2896;53.500;10.020;2022-08-19T13:09:34;17.87;;;12.70;;
5742;SDS011;2896;53.500;10.020;2022-08-19T13:12:01;14.93;;;13.40;;
5742;SDS011;2896;53.500;10.020;2022-08-19T13:14:32;14.80;;;13.30;;
5742;SDS011;2896;53.500;10.020;2022-08-19T13:16:59;20.70;;;14.13;;
5742;SDS011;2896;53.500;10.020;2022-08-19T13:19:26;16.00;;;13.60;;
5742;SDS011;2896;53.500;10.020;2022-08-19T13:21:53;14.30;;;12.80;;
5742;SDS011;2896;53.500;10.020;2022-08-19T13:24:21;16.40;;;12.13;;
5742;SDS011;2896;53.500;10.020;2022-08-19T13:26:48;15.67;;;13.97;;
5742;SDS011;2896;53.500;10.020;2022-08-19T13:29:15;14.40;;;11.50;;
5742;SDS011;2896;53.500;10.020;2022-08-19T13:31:59;19.13;;;12.87;;
5742;SDS011;2896;53.500;10.020;2022-08-19T13:34:43;19.47;;;14.53;;
5742;SDS011;2896;53.500;10.020;2022-08-19T13:37:11;13.50;;;11.73;;
5742;SDS011;2896;53.500;10.020;2022-08-19T13:39:39;14.87;;;13.10;;
5742;SDS011;2896;53.500;10.020;2022-08-19T13:42:06;14.87;;;12.27;;
5742;SDS011;2896;53.500;10.020;2022-08-19T13:44:34;19.40;;;14.40;;
5742;SDS011;2896;53.500;10.020;2022-08-19T13:47:01;14.60;;;13.20;;
5742;SDS011;2896;53.500;10.020;2022-08-19T13:49:30;13.07;;;11.80;;
5742;SDS011;2896;53.500;10.020;2022-08-19T13:51:57;14.03;;;11.93;;
5742;SDS011;2896;53.500;10.020;2022-08-19T13:54:23;16.07;;;13.27;;
5742;SDS011;2896;53.500;10.020;2022-08-19T13:56:53;13.43;;;12.10;;
5742;SDS011;2896;53.500;10.020;2022-08-19T13:59:19;17.17;;;12.97;;
5742;SDS011;2896;53.500;10.020;2022-08-19T14:01:46;16.00;;;12.80;;
5742;SDS011;2896;53.500;10.020;2022-08-19T14:04:13;13.97;;;12.57;;
5742;SDS011;2896;53.500;10.020;2022-08-19T14:06:39;17.13;;;14.63;;
5742;SDS011;2896;53.500;10.020;2022-08-19T14:09:06;13.77;;;12.47;;
5742;SDS011;2896;53.500;10.020;2022-08-19T14:11:33;15.43;;;13.73;;
5742;SDS011;2896;53.500;10.020;2022-08-19T14:14:01;12.80;;;11.60;;
5742;SDS011;2896;53.500;10.020;2022-08-19T14:16:27;20.40;;;14.37;;
5742;SDS011;2896;53.500;10.020;2022-08-19T14:18:55;14.90;;;13.30;;
5742;SDS011;2896;53.500;10.020;2022-08-19T14:21:22;15.77;;;14.10;;
5742;SDS011;2896;53.500;10.020;2022-08-19T14:23:50;13.20;;;10.97;;
5742;SDS011;2896;53.500;10.020;2022-08-19T14:26:17;17.13;;;14.47;;
5742;SDS011;2896;53.500;10.020;2022-08-19T14:28:45;21.40;;;14.70;;
5742;SDS011;2896;53.500;10.020;2022-08-19T14:31:14;16.23;;;14.63;;
5742;SDS011;2896;53.500;10.020;2022-08-19T14:33:44;16.10;;;12.83;;
5742;SDS011;2896;53.500;10.020;2022-08-19T14:36:11;15.43;;;13.83;;
5742;SDS011;2896;53.500;10.020;2022-08-19T14:38:38;12.50;;;11.17;;
5742;SDS011;2896;53.500;10.020;2022-08-19T14:41:06;18.77;;;14.77;;
5742;SDS011;2896;53.500;10.020;2022-08-19T14:43:37;13.67;;;12.30;;